Weather at Naha Airport

Public forecast

Using degrees Celsius for public forecast. Weather courtesy of forecast.io.

Closest aviation weather report (METAR) to Naha Airport

Closest report is Tawau Airport, 445.2 nm (824.5 km) W.

2024/02/24 10:00 (retrieved 44 minutes ago)

WBKW 241000Z VRB02KT 9999 FEW016 27/26 Q1010

Closest aviation forecast (TAF) to Naha Airport

Closest forecast is Tawau Airport, 445.2 nm (824.5 km) W.

2024/02/24 06:00 (retrieved 5 hours ago)

TAF WBKW 240500Z 2406/2506 12010KT 9999 FEW016 BECMG 2412/2414 VRB03KT